Terminal Aerodrome Forecast
Issued by NWS Quad Cities IA IL

Home | Current Version | Previous Version | Text Only | Print | Product List | Glossary On
Versions: 1 2 3 4 5 6 7 8 9 10 11 12 13 14 15 16 17 18 19 20 21 22 23 24 25 26 27 28 29 30 31 32 33 34 35 36
968
FTUS43 KDVN 180330 AAA
TAFDBQ
TAF AMD
KDBQ 180330Z 1804/1824 29009KT 1 1/2SM BR OVC003
      TEMPO 1804/1807 3/4SM BR VV002
     FM181100 23007KT 6SM BR FEW006
     FM181500 20008KT P6SM SKC=

USA.gov is the U.S. government's official web portal to all federal, state and local government web resources and services.